Time;durP1;ratioP1;P1;durP2;ratioP2;P2;SDS_P1;SDS_P2;PMS_P1;PMS_P2;Temp;Humidity;BMP_temperature;BMP_pressure;BME280_temperature;BME280_humidity;BME280_pressure;Samples;Min_cycle;Max_cycle;Signal;HPM_P1;HPM_P2
2021/09/25 00:00:30;;;;;;;1.90;1.73;;;8.70;99.90;;;;;;4973806;28;20204;-75
2021/09/25 00:02:57;;;;;;;0.80;0.80;;;8.60;99.90;;;;;;4970230;28;20242;-74
2021/09/25 00:05:31;;;;;;;0.60;0.60;;;8.50;99.90;;;;;;4971058;28;20573;-74
2021/09/25 00:07:57;;;;;;;0.70;0.70;;;8.50;99.90;;;;;;4985811;28;20242;-74
2021/09/25 00:10:23;;;;;;;0.60;0.60;;;8.40;99.90;;;;;;4974175;28;20225;-75
2021/09/25 00:12:49;;;;;;;0.60;0.60;;;8.40;99.90;;;;;;4973827;28;20324;-75
2021/09/25 00:15:16;;;;;;;0.90;0.90;;;8.30;99.90;;;;;;4972146;28;20208;-75
2021/09/25 00:17:42;;;;;;;0.70;0.70;;;8.30;99.90;;;;;;4988154;28;20204;-75
2021/09/25 00:20:08;;;;;;;0.50;0.50;;;8.30;99.90;;;;;;4971979;28;20208;-75
2021/09/25 00:22:35;;;;;;;0.50;0.50;;;8.20;99.90;;;;;;4971923;28;20251;-75
2021/09/25 00:25:01;;;;;;;0.50;0.50;;;8.30;99.90;;;;;;4972097;28;20298;-74
2021/09/25 00:27:27;;;;;;;0.60;0.60;;;8.30;99.90;;;;;;4973333;28;20213;-75
2021/09/25 00:29:53;;;;;;;0.60;0.60;;;8.40;99.90;;;;;;4970688;28;20685;-74
2021/09/25 00:32:19;;;;;;;1.00;1.00;;;8.40;99.90;;;;;;4972201;28;20204;-74
2021/09/25 00:34:44;;;;;;;2.28;1.90;;;8.60;99.90;;;;;;4972164;28;20296;-74
2021/09/25 00:37:10;;;;;;;0.60;0.60;;;8.90;99.90;;;;;;4973130;28;20207;-73
2021/09/25 00:39:36;;;;;;;0.63;0.63;;;9.00;99.90;;;;;;4988130;28;20224;-73
2021/09/25 00:42:02;;;;;;;0.60;0.60;;;9.20;99.90;;;;;;4968637;28;20687;-73
2021/09/25 00:44:28;;;;;;;0.50;0.50;;;9.20;99.90;;;;;;4976736;28;20219;-73
2021/09/25 00:46:56;;;;;;;0.60;0.60;;;9.30;99.90;;;;;;4972060;28;20564;-73
2021/09/25 00:49:22;;;;;;;0.80;0.80;;;9.30;99.90;;;;;;4971764;28;20196;-73
2021/09/25 00:51:48;;;;;;;0.60;0.60;;;9.50;99.90;;;;;;4971671;28;20702;-73
2021/09/25 00:54:15;;;;;;;0.60;0.60;;;9.50;99.90;;;;;;4973052;28;20200;-73
2021/09/25 00:56:43;;;;;;;0.60;0.60;;;9.50;99.90;;;;;;4970478;28;20218;-72
2021/09/25 00:59:09;;;;;;;0.65;0.65;;;9.60;99.90;;;;;;4971955;28;20228;-73
2021/09/25 01:01:35;;;;;;;4.60;0.80;;;9.50;99.90;;;;;;4987617;28;20239;-74
2021/09/25 01:04:00;;;;;;;1.13;1.13;;;9.40;99.90;;;;;;4972831;28;20220;-74
2021/09/25 01:06:26;;;;;;;0.50;0.50;;;9.20;99.90;;;;;;4972920;28;20205;-74
2021/09/25 01:08:52;;;;;;;0.70;0.70;;;9.00;99.90;;;;;;4973333;28;20274;-74
2021/09/25 01:11:18;;;;;;;0.70;0.70;;;8.80;99.90;;;;;;4971630;28;20207;-74
2021/09/25 01:13:43;;;;;;;0.60;0.60;;;8.60;99.90;;;;;;4970714;28;20204;-74
2021/09/25 01:16:09;;;;;;;0.60;0.60;;;8.40;99.90;;;;;;4975392;28;20219;-74
2021/09/25 01:18:35;;;;;;;0.50;0.50;;;8.30;99.90;;;;;;4976154;28;20239;-73
2021/09/25 01:21:07;;;;;;;0.50;0.50;;;8.10;99.90;;;;;;4975083;28;20211;-74
2021/09/25 01:23:34;;;;;;;0.60;0.60;;;8.10;99.90;;;;;;4975844;28;20212;-74
2021/09/25 01:26:00;;;;;;;0.70;0.70;;;8.00;99.90;;;;;;4976335;28;20211;-74
2021/09/25 01:28:31;;;;;;;0.60;0.60;;;7.90;99.90;;;;;;4976123;28;20208;-74
2021/09/25 01:30:57;;;;;;;0.77;0.77;;;7.80;99.90;;;;;;4976503;28;20605;-74
2021/09/25 01:33:33;;;;;;;0.60;0.60;;;7.70;99.90;;;;;;4976118;28;20683;-74
2021/09/25 01:36:00;;;;;;;0.50;0.50;;;7.60;99.90;;;;;;4974659;28;20207;-74
2021/09/25 01:38:26;;;;;;;0.70;0.70;;;7.50;99.90;;;;;;4974723;28;20303;-73
2021/09/25 01:40:52;;;;;;;0.82;0.82;;;7.40;99.90;;;;;;4975870;28;20286;-73
2021/09/25 01:43:18;;;;;;;0.57;0.57;;;7.40;99.90;;;;;;4974434;28;20208;-73
2021/09/25 01:45:45;;;;;;;6.63;1.77;;;7.50;99.90;;;;;;4974375;28;20291;-74
2021/09/25 01:48:11;;;;;;;0.57;0.57;;;7.40;99.90;;;;;;4974596;28;20254;-74
2021/09/25 01:50:37;;;;;;;1.92;1.52;;;7.30;99.90;;;;;;4975488;28;20226;-74
2021/09/25 01:53:03;;;;;;;0.60;0.60;;;7.40;99.90;;;;;;4974294;28;20279;-74
2021/09/25 01:55:29;;;;;;;4.95;2.15;;;7.40;99.90;;;;;;4975619;28;20300;-73
2021/09/25 01:57:54;;;;;;;0.57;0.57;;;7.40;99.90;;;;;;4973125;28;20200;-74
2021/09/25 02:00:21;;;;;;;0.60;0.60;;;7.40;99.90;;;;;;4973492;28;20204;-73
2021/09/25 02:02:47;;;;;;;0.85;0.85;;;7.40;99.90;;;;;;4971545;28;20246;-73
2021/09/25 02:05:15;;;;;;;0.50;0.50;;;7.30;99.90;;;;;;4974024;28;20212;-74
2021/09/25 02:07:41;;;;;;;0.50;0.50;;;7.30;99.90;;;;;;4973695;28;20691;-73
2021/09/25 02:10:08;;;;;;;0.63;0.63;;;7.30;99.90;;;;;;4974006;28;20250;-73
2021/09/25 02:12:34;;;;;;;1.65;1.55;;;7.30;99.90;;;;;;4972337;28;20219;-73
2021/09/25 02:15:00;;;;;;;0.50;0.50;;;7.40;99.90;;;;;;4975175;28;20208;-72
2021/09/25 02:17:25;;;;;;;1.58;1.48;;;7.60;99.90;;;;;;4974832;28;20239;-73
2021/09/25 02:19:51;;;;;;;1.08;1.00;;;7.80;99.90;;;;;;4973783;28;20574;-74
2021/09/25 02:22:17;;;;;;;4.72;1.95;;;8.00;99.90;;;;;;4972542;28;20217;-73
2021/09/25 02:24:43;;;;;;;1.55;1.33;;;8.20;99.90;;;;;;4974712;28;20671;-72
2021/09/25 02:27:09;;;;;;;0.60;0.60;;;8.40;99.90;;;;;;4973128;28;20219;-73
2021/09/25 02:29:35;;;;;;;0.70;0.70;;;8.60;99.90;;;;;;4973493;28;20363;-73
2021/09/25 02:32:01;;;;;;;0.60;0.60;;;8.70;99.90;;;;;;4973594;28;20219;-73
2021/09/25 02:34:27;;;;;;;0.63;0.63;;;8.80;99.90;;;;;;4975517;28;20207;-73
2021/09/25 02:36:52;;;;;;;0.60;0.60;;;8.90;99.90;;;;;;4974772;28;20232;-74
2021/09/25 02:39:18;;;;;;;0.75;0.75;;;9.00;99.90;;;;;;4974636;28;20218;-74
2021/09/25 02:41:44;;;;;;;0.60;0.60;;;9.10;99.90;;;;;;4973155;28;20208;-74
2021/09/25 02:44:09;;;;;;;0.80;0.80;;;9.10;99.90;;;;;;4973762;28;20208;-74
2021/09/25 02:46:35;;;;;;;0.55;0.55;;;9.10;99.90;;;;;;4974449;28;20350;-74
2021/09/25 02:49:01;;;;;;;1.23;0.80;;;9.10;99.90;;;;;;4974791;28;20208;-73
2021/09/25 02:51:26;;;;;;;0.80;0.80;;;9.20;99.90;;;;;;4973022;28;20208;-73
2021/09/25 02:53:52;;;;;;;0.75;0.73;;;9.20;99.90;;;;;;4974216;28;20204;-73
2021/09/25 02:56:17;;;;;;;0.60;0.60;;;9.10;99.90;;;;;;4972940;28;20690;-73
2021/09/25 02:58:43;;;;;;;0.70;0.70;;;9.00;99.90;;;;;;4972662;28;20236;-73
2021/09/25 03:01:09;;;;;;;0.70;0.70;;;8.90;99.90;;;;;;4970524;28;20227;-74
2021/09/25 03:03:34;;;;;;;2.67;1.95;;;8.80;99.90;;;;;;4973763;28;20286;-73
2021/09/25 03:06:00;;;;;;;0.50;0.50;;;8.70;99.90;;;;;;4974207;28;20220;-73
2021/09/25 03:08:26;;;;;;;3.38;1.98;;;8.70;99.90;;;;;;4973352;28;20691;-73
2021/09/25 03:10:52;;;;;;;0.60;0.60;;;8.60;99.90;;;;;;4972765;28;20240;-73
2021/09/25 03:13:17;;;;;;;0.60;0.60;;;8.40;99.90;;;;;;4974050;28;20602;-73
2021/09/25 03:15:44;;;;;;;13.35;1.77;;;8.30;99.90;;;;;;4972603;28;20200;-73
2021/09/25 03:18:09;;;;;;;0.60;0.60;;;8.20;99.90;;;;;;4972662;28;20211;-74
2021/09/25 03:20:35;;;;;;;0.60;0.60;;;8.30;99.90;;;;;;4972410;28;20583;-74
2021/09/25 03:23:01;;;;;;;0.60;0.60;;;8.10;99.90;;;;;;4973889;28;20738;-74
2021/09/25 03:25:26;;;;;;;0.60;0.60;;;7.90;99.90;;;;;;4973648;28;20214;-73
2021/09/25 03:27:54;;;;;;;0.60;0.60;;;7.90;99.90;;;;;;4973891;28;20240;-74
2021/09/25 03:30:21;;;;;;;2.83;1.90;;;7.90;99.90;;;;;;4973685;28;20625;-73
2021/09/25 03:32:47;;;;;;;0.60;0.60;;;7.90;99.90;;;;;;4973802;28;20196;-73
2021/09/25 03:35:13;;;;;;;8.43;1.73;;;7.90;99.90;;;;;;4972769;28;20298;-73
2021/09/25 03:37:38;;;;;;;0.60;0.60;;;7.90;99.90;;;;;;4970042;28;20204;-73
2021/09/25 03:40:05;;;;;;;0.60;0.60;;;7.70;99.90;;;;;;4973423;28;20208;-73
2021/09/25 03:42:31;;;;;;;0.60;0.60;;;7.50;99.90;;;;;;4973173;28;20230;-71
2021/09/25 03:44:56;;;;;;;0.70;0.70;;;7.30;99.90;;;;;;4972098;28;20294;-73
2021/09/25 03:47:22;;;;;;;0.60;0.60;;;7.10;99.90;;;;;;4973471;28;20208;-72
2021/09/25 03:49:48;;;;;;;0.60;0.60;;;7.10;99.90;;;;;;4971993;28;20742;-73
2021/09/25 03:52:14;;;;;;;0.80;0.80;;;7.10;99.90;;;;;;4973563;28;20562;-73
2021/09/25 03:54:40;;;;;;;0.60;0.60;;;7.10;99.90;;;;;;4972927;28;20211;-73
2021/09/25 03:57:06;;;;;;;0.60;0.60;;;7.00;99.90;;;;;;4973400;28;20255;-73
2021/09/25 03:59:32;;;;;;;0.70;0.70;;;7.00;99.90;;;;;;4971698;28;20606;-73
2021/09/25 04:01:58;;;;;;;0.60;0.60;;;7.00;99.90;;;;;;4973960;28;20236;-73
2021/09/25 04:04:23;;;;;;;0.70;0.70;;;7.00;99.90;;;;;;4971449;28;20234;-73
2021/09/25 04:06:49;;;;;;;1.50;1.40;;;6.90;99.90;;;;;;4971990;28;20200;-73
2021/09/25 04:09:15;;;;;;;0.82;0.80;;;6.70;99.90;;;;;;4971802;28;20207;-73
2021/09/25 04:11:40;;;;;;;0.77;0.77;;;6.60;99.90;;;;;;4972972;28;20195;-73
2021/09/25 04:14:06;;;;;;;0.65;0.65;;;6.60;99.90;;;;;;4973506;28;20211;-73
2021/09/25 04:16:32;;;;;;;0.80;0.80;;;6.50;99.90;;;;;;4973045;28;20211;-73
2021/09/25 04:18:57;;;;;;;0.60;0.60;;;6.40;99.90;;;;;;4971707;28;20211;-72
2021/09/25 04:21:23;;;;;;;64.50;1.75;;;6.30;99.90;;;;;;4972551;28;20208;-72
2021/09/25 04:23:49;;;;;;;0.60;0.60;;;6.50;99.90;;;;;;4972358;28;20416;-71
2021/09/25 04:26:16;;;;;;;0.50;0.50;;;6.50;99.90;;;;;;4972980;28;20643;-71
2021/09/25 04:28:42;;;;;;;0.90;0.90;;;6.40;99.90;;;;;;4970286;28;20679;-73
2021/09/25 04:31:07;;;;;;;0.70;0.70;;;6.30;99.90;;;;;;4971825;28;20301;-73
2021/09/25 04:33:33;;;;;;;0.47;0.47;;;6.20;99.90;;;;;;4971432;28;20204;-73
2021/09/25 04:35:59;;;;;;;0.68;0.68;;;6.10;99.90;;;;;;4970331;28;20208;-74
2021/09/25 04:38:25;;;;;;;0.60;0.60;;;6.10;99.90;;;;;;4972719;28;20690;-74
2021/09/25 04:40:50;;;;;;;0.60;0.60;;;6.00;99.90;;;;;;4971542;28;20279;-74
2021/09/25 04:43:16;;;;;;;0.70;0.70;;;6.00;99.90;;;;;;4971532;28;20226;-72
2021/09/25 04:45:42;;;;;;;0.60;0.60;;;6.00;99.90;;;;;;4971246;28;20218;-73
2021/09/25 04:48:07;;;;;;;0.55;0.55;;;6.00;99.90;;;;;;4970229;28;20204;-73
2021/09/25 04:50:33;;;;;;;0.80;0.80;;;6.10;99.90;;;;;;4975638;28;20208;-73
2021/09/25 04:53:11;;;;;;;0.70;0.70;;;6.00;99.90;;;;;;4975381;28;20205;-73
2021/09/25 04:55:36;;;;;;;6.68;1.40;;;6.00;99.90;;;;;;4974914;28;20208;-73
2021/09/25 04:58:03;;;;;;;0.70;0.70;;;6.10;99.90;;;;;;4975301;28;20773;-73
2021/09/25 05:00:29;;;;;;;0.65;0.65;;;6.20;99.90;;;;;;4975623;28;20290;-74
2021/09/25 05:02:55;;;;;;;0.70;0.70;;;6.30;99.90;;;;;;4975038;28;20264;-73
2021/09/25 05:05:20;;;;;;;0.70;0.70;;;6.30;99.90;;;;;;4977020;28;20212;-74
2021/09/25 05:07:46;;;;;;;0.57;0.57;;;6.40;99.90;;;;;;4991536;28;20714;-74
2021/09/25 05:10:12;;;;;;;1.40;1.23;;;6.30;99.90;;;;;;4976360;28;20204;-73
2021/09/25 05:12:38;;;;;;;0.95;0.90;;;6.30;99.90;;;;;;4977419;28;20567;-73
2021/09/25 05:15:04;;;;;;;0.55;0.55;;;6.30;99.90;;;;;;4974765;28;20208;-73
2021/09/25 05:17:30;;;;;;;0.65;0.65;;;6.20;99.90;;;;;;4973406;28;20204;-73
2021/09/25 05:19:56;;;;;;;1.05;1.00;;;6.20;99.90;;;;;;4974758;28;20206;-73
2021/09/25 05:22:21;;;;;;;0.50;0.50;;;6.20;99.90;;;;;;4973183;28;20208;-73
2021/09/25 05:24:47;;;;;;;0.70;0.70;;;6.20;99.90;;;;;;4975966;28;20219;-73
2021/09/25 05:27:13;;;;;;;0.70;0.70;;;6.30;99.90;;;;;;4974759;28;20204;-74
2021/09/25 05:29:39;;;;;;;0.70;0.70;;;6.40;99.90;;;;;;4975784;28;20294;-73
2021/09/25 05:32:06;;;;;;;0.77;0.75;;;6.50;99.90;;;;;;4974606;28;20203;-73
2021/09/25 05:34:32;;;;;;;0.50;0.50;;;6.60;99.90;;;;;;4990586;28;20204;-74
2021/09/25 05:36:59;;;;;;;0.60;0.60;;;6.60;99.90;;;;;;4975972;28;20204;-73
2021/09/25 05:39:25;;;;;;;0.95;0.95;;;6.60;99.90;;;;;;4974209;28;20204;-74
2021/09/25 05:41:51;;;;;;;0.80;0.80;;;6.80;99.90;;;;;;4974348;28;20208;-73
2021/09/25 05:44:17;;;;;;;0.60;0.60;;;6.90;99.90;;;;;;4974342;28;20694;-73
2021/09/25 05:46:43;;;;;;;0.60;0.60;;;7.10;99.90;;;;;;4974238;28;20196;-73
2021/09/25 05:49:08;;;;;;;0.60;0.60;;;7.30;99.90;;;;;;4974278;28;20200;-73
2021/09/25 05:51:34;;;;;;;0.70;0.70;;;7.50;99.90;;;;;;4975518;28;20211;-73
2021/09/25 05:54:00;;;;;;;0.75;0.75;;;7.70;99.90;;;;;;4975708;28;20192;-73
2021/09/25 05:56:25;;;;;;;0.93;0.93;;;8.00;99.90;;;;;;4973766;28;20235;-73
2021/09/25 05:58:51;;;;;;;0.70;0.70;;;8.20;99.90;;;;;;4974267;28;20258;-73
2021/09/25 06:01:17;;;;;;;0.60;0.60;;;8.30;99.90;;;;;;4971584;28;20360;-73
2021/09/25 06:03:42;;;;;;;0.60;0.60;;;8.50;99.90;;;;;;4973755;28;20208;-73
2021/09/25 06:06:08;;;;;;;0.60;0.60;;;8.60;99.90;;;;;;4975176;28;20219;-73
2021/09/25 06:08:34;;;;;;;0.68;0.68;;;8.80;99.90;;;;;;4973803;28;20294;-73
2021/09/25 06:11:00;;;;;;;0.60;0.60;;;8.80;99.90;;;;;;4973903;28;20205;-73
2021/09/25 06:13:25;;;;;;;0.70;0.70;;;8.80;99.90;;;;;;4975032;28;20255;-73
2021/09/25 06:15:51;;;;;;;0.95;0.88;;;8.90;99.90;;;;;;4973833;28;20626;-72
2021/09/25 06:18:17;;;;;;;0.65;0.65;;;9.00;99.90;;;;;;4973984;28;20659;-72
2021/09/25 06:20:43;;;;;;;0.60;0.60;;;9.00;99.90;;;;;;4973559;28;20207;-73
2021/09/25 06:23:08;;;;;;;0.60;0.60;;;9.10;99.90;;;;;;4972464;28;20251;-72
2021/09/25 06:25:35;;;;;;;0.50;0.50;;;9.30;99.90;;;;;;4973211;28;20228;-72
2021/09/25 06:28:01;;;;;;;0.60;0.60;;;9.50;99.90;;;;;;4973706;28;20278;-72
2021/09/25 06:30:27;;;;;;;0.68;0.68;;;9.60;99.90;;;;;;4973219;28;20216;-72
2021/09/25 06:32:53;;;;;;;0.70;0.70;;;9.70;99.90;;;;;;4974641;28;20724;-71
2021/09/25 06:35:19;;;;;;;0.60;0.60;;;9.70;99.90;;;;;;4972061;28;20616;-71
2021/09/25 06:37:44;;;;;;;0.70;0.70;;;9.80;99.90;;;;;;4974032;28;20615;-71
2021/09/25 06:40:11;;;;;;;0.60;0.60;;;10.00;99.90;;;;;;4974207;28;20188;-70
2021/09/25 06:42:38;;;;;;;1.33;1.23;;;10.10;99.90;;;;;;4974274;28;20218;-72
2021/09/25 06:45:04;;;;;;;0.60;0.60;;;10.10;99.90;;;;;;4974989;28;20595;-72
2021/09/25 06:47:30;;;;;;;0.70;0.70;;;10.20;99.90;;;;;;4973322;28;20579;-72
2021/09/25 06:49:56;;;;;;;0.47;0.47;;;10.30;99.90;;;;;;4973264;28;20623;-72
2021/09/25 06:52:23;;;;;;;0.52;0.52;;;10.50;99.90;;;;;;4973119;28;20200;-73
2021/09/25 06:54:49;;;;;;;0.60;0.60;;;10.60;99.90;;;;;;4973792;28;20243;-72
2021/09/25 06:57:15;;;;;;;0.60;0.60;;;10.70;99.90;;;;;;4974018;28;20252;-73
2021/09/25 06:59:41;;;;;;;0.60;0.60;;;10.80;99.90;;;;;;4975215;28;20220;-73
2021/09/25 07:02:07;;;;;;;0.50;0.50;;;10.90;99.90;;;;;;4973857;28;20239;-72
2021/09/25 07:04:33;;;;;;;0.75;0.75;;;10.90;99.90;;;;;;4975081;28;20216;-72
2021/09/25 07:06:59;;;;;;;4.03;1.60;;;11.00;99.90;;;;;;4973785;28;20261;-73
2021/09/25 07:09:25;;;;;;;0.50;0.50;;;11.10;99.90;;;;;;4973613;28;20262;-73
2021/09/25 07:11:50;;;;;;;0.50;0.50;;;11.20;99.90;;;;;;4973129;28;20672;-70
2021/09/25 07:14:16;;;;;;;12.82;0.95;;;11.30;99.90;;;;;;4974297;28;20215;-70
2021/09/25 07:16:42;;;;;;;0.60;0.60;;;11.40;99.90;;;;;;4973288;28;20204;-70
2021/09/25 07:19:09;;;;;;;1.33;1.23;;;11.50;99.90;;;;;;4973204;28;20238;-70
2021/09/25 07:21:35;;;;;;;0.50;0.50;;;11.60;99.90;;;;;;4971568;28;20204;-70
2021/09/25 07:24:01;;;;;;;0.57;0.57;;;11.80;99.90;;;;;;4971477;28;20211;-71
2021/09/25 07:26:27;;;;;;;0.70;0.70;;;11.80;99.90;;;;;;4973181;28;20184;-71
2021/09/25 07:28:53;;;;;;;0.50;0.50;;;11.90;99.90;;;;;;4974352;28;20212;-71
2021/09/25 07:31:18;;;;;;;0.50;0.50;;;12.10;99.90;;;;;;4974209;28;20231;-71
2021/09/25 07:33:44;;;;;;;0.50;0.50;;;12.10;99.90;;;;;;4974172;28;20216;-71
2021/09/25 07:36:10;;;;;;;0.60;0.60;;;12.20;99.90;;;;;;4972649;28;20208;-70
2021/09/25 07:38:36;;;;;;;0.50;0.50;;;12.30;99.90;;;;;;4972798;28;20208;-72
2021/09/25 07:41:02;;;;;;;0.60;0.60;;;12.40;99.90;;;;;;4972325;28;20678;-72
2021/09/25 07:43:28;;;;;;;0.52;0.52;;;12.50;99.90;;;;;;4972368;28;20236;-71
2021/09/25 07:45:57;;;;;;;0.60;0.60;;;12.50;99.90;;;;;;4971224;28;20246;-72
2021/09/25 07:48:24;;;;;;;0.50;0.50;;;12.70;99.90;;;;;;4973567;28;20208;-72
2021/09/25 07:50:50;;;;;;;0.50;0.50;;;12.90;99.90;;;;;;4988368;28;20204;-72
2021/09/25 07:53:18;;;;;;;0.50;0.50;;;12.90;99.90;;;;;;4973710;28;20347;-72
2021/09/25 07:55:44;;;;;;;0.50;0.50;;;13.10;99.90;;;;;;4988497;28;20200;-72
2021/09/25 07:58:10;;;;;;;0.50;0.50;;;13.20;99.90;;;;;;4972471;28;20221;-72
2021/09/25 08:00:36;;;;;;;1.40;0.93;;;13.40;99.90;;;;;;4972022;28;20208;-73
2021/09/25 08:03:02;;;;;;;0.60;0.60;;;13.50;99.90;;;;;;4973265;28;20616;-72
2021/09/25 08:05:28;;;;;;;0.50;0.50;;;13.60;99.90;;;;;;4971990;28;20223;-72
2021/09/25 08:07:54;;;;;;;0.70;0.70;;;13.70;99.90;;;;;;4971079;28;20207;-72
2021/09/25 08:10:20;;;;;;;0.40;0.40;;;13.90;99.90;;;;;;4970783;28;20200;-73
2021/09/25 08:12:46;;;;;;;0.40;0.40;;;14.00;99.90;;;;;;4972189;28;20707;-74
2021/09/25 08:15:14;;;;;;;0.50;0.50;;;14.30;99.90;;;;;;4972161;28;20279;-72
2021/09/25 08:17:41;;;;;;;0.50;0.50;;;14.50;99.90;;;;;;4970924;28;20244;-73
2021/09/25 08:20:08;;;;;;;0.45;0.45;;;14.40;99.90;;;;;;4973387;28;20243;-73
2021/09/25 08:22:34;;;;;;;0.50;0.50;;;14.40;99.90;;;;;;4972023;28;20279;-73
2021/09/25 08:25:00;;;;;;;0.40;0.40;;;14.50;99.90;;;;;;4975791;28;20212;-73
2021/09/25 08:27:26;;;;;;;0.40;0.40;;;14.70;99.90;;;;;;4977569;28;20692;-73
2021/09/25 08:29:54;;;;;;;0.40;0.40;;;14.80;99.90;;;;;;4976401;28;20270;-73
2021/09/25 08:32:19;;;;;;;0.43;0.43;;;14.70;99.90;;;;;;4976245;28;20212;-74
2021/09/25 08:34:45;;;;;;;0.40;0.40;;;14.80;99.90;;;;;;4976056;28;20219;-73
2021/09/25 08:37:11;;;;;;;0.50;0.50;;;14.80;99.90;;;;;;4976914;28;20211;-74
2021/09/25 08:39:40;;;;;;;0.40;0.40;;;14.80;99.90;;;;;;4975794;28;20208;-74
2021/09/25 08:42:06;;;;;;;0.45;0.45;;;14.80;99.90;;;;;;4972658;28;20205;-73
2021/09/25 08:44:35;;;;;;;0.40;0.40;;;15.00;99.90;;;;;;4985064;28;20216;-73
2021/09/25 08:47:00;;;;;;;0.40;0.40;;;15.10;99.90;;;;;;4975643;28;20315;-74
2021/09/25 08:49:26;;;;;;;0.40;0.40;;;15.10;99.90;;;;;;4975902;28;20339;-74
2021/09/25 08:51:55;;;;;;;0.40;0.40;;;15.40;99.90;;;;;;4975927;28;20248;-74
2021/09/25 08:54:21;;;;;;;0.40;0.40;;;15.50;99.90;;;;;;4976831;28;20555;-73
2021/09/25 08:56:46;;;;;;;0.40;0.40;;;15.40;99.90;;;;;;4976755;28;20215;-73
2021/09/25 08:59:12;;;;;;;0.50;0.50;;;15.30;99.90;;;;;;4977250;28;20204;-73
2021/09/25 09:01:43;;;;;;;0.40;0.40;;;15.40;99.90;;;;;;4973774;28;20279;-73
2021/09/25 09:04:09;;;;;;;0.40;0.40;;;15.50;99.90;;;;;;4991791;28;20216;-73
2021/09/25 09:06:36;;;;;;;0.40;0.40;;;15.60;99.90;;;;;;4975361;28;20207;-73
2021/09/25 09:09:08;;;;;;;0.40;0.40;;;15.50;99.90;;;;;;4975465;28;20651;-73
2021/09/25 09:11:43;;;;;;;0.40;0.40;;;15.70;99.90;;;;;;4975061;28;20200;-74
2021/09/25 09:14:13;;;;;;;0.40;0.40;;;16.00;99.90;;;;;;4976858;28;20227;-73
2021/09/25 09:16:39;;;;;;;0.40;0.40;;;16.20;99.90;;;;;;4991445;28;20635;-74
2021/09/25 09:19:05;;;;;;;0.38;0.38;;;16.40;99.90;;;;;;4975320;28;20228;-73
2021/09/25 09:21:31;;;;;;;0.40;0.40;;;16.70;99.90;;;;;;4974980;28;20207;-73
2021/09/25 09:24:00;;;;;;;0.40;0.40;;;16.80;99.90;;;;;;4973927;28;20546;-74
2021/09/25 09:26:30;;;;;;;0.40;0.40;;;16.90;99.90;;;;;;4974046;28;20201;-74
2021/09/25 09:28:58;;;;;;;0.40;0.40;;;16.90;99.90;;;;;;4975239;28;20223;-74
2021/09/25 09:31:24;;;;;;;0.30;0.30;;;16.90;99.90;;;;;;4975495;28;20548;-74
2021/09/25 09:33:51;;;;;;;0.40;0.40;;;17.00;99.90;;;;;;4976196;28;20204;-74
2021/09/25 09:36:39;;;;;;;0.30;0.30;;;17.00;99.90;;;;;;4976428;28;20211;-74
2021/09/25 09:39:14;;;;;;;0.40;0.40;;;17.00;99.90;;;;;;4974774;28;20266;-74
2021/09/25 09:41:43;;;;;;;0.40;0.40;;;17.10;99.90;;;;;;4974871;28;20265;-74
2021/09/25 09:44:13;;;;;;;0.30;0.30;;;17.30;99.90;;;;;;4974790;28;20208;-74
2021/09/25 09:46:51;;;;;;;0.30;0.30;;;17.50;99.90;;;;;;4973530;28;20204;-74
2021/09/25 09:49:22;;;;;;;0.30;0.30;;;17.60;99.90;;;;;;4975118;28;20204;-74
2021/09/25 09:51:53;;;;;;;0.30;0.30;;;17.70;99.90;;;;;;4974784;28;20200;-75
2021/09/25 09:54:28;;;;;;;0.30;0.30;;;17.70;99.90;;;;;;4990857;28;20251;-74
2021/09/25 09:56:59;;;;;;;0.30;0.30;;;17.70;99.90;;;;;;4974746;28;20200;-74
2021/09/25 09:59:26;;;;;;;0.40;0.40;;;17.80;99.90;;;;;;4974548;28;20208;-74
2021/09/25 10:01:53;;;;;;;0.30;0.30;;;17.90;99.90;;;;;;4975764;28;20220;-75
2021/09/25 10:04:20;;;;;;;0.30;0.30;;;18.10;99.90;;;;;;4973250;28;20224;-74
2021/09/25 10:06:47;;;;;;;0.30;0.30;;;18.00;99.90;;;;;;4973675;28;20854;-73
2021/09/25 10:09:15;;;;;;;0.40;0.40;;;17.90;99.90;;;;;;4974353;28;20619;-74
2021/09/25 10:11:43;;;;;;;0.30;0.30;;;18.10;99.90;;;;;;4975114;28;20215;-74
2021/09/25 10:14:10;;;;;;;0.30;0.30;;;18.00;99.90;;;;;;4975444;28;20243;-75
2021/09/25 10:16:36;;;;;;;0.30;0.30;;;18.00;99.90;;;;;;4974133;28;20211;-74
2021/09/25 10:19:05;;;;;;;0.28;0.28;;;17.90;99.90;;;;;;4975573;28;20199;-74
2021/09/25 10:21:35;;;;;;;0.30;0.30;;;18.10;99.90;;;;;;4975590;28;20655;-75
2021/09/25 10:24:13;;;;;;;0.30;0.30;;;18.50;99.90;;;;;;4974079;28;20286;-74
2021/09/25 10:26:45;;;;;;;0.30;0.30;;;18.70;99.90;;;;;;4973645;28;20682;-74
2021/09/25 10:29:22;;;;;;;0.20;0.20;;;18.70;99.90;;;;;;4972640;28;20200;-74
2021/09/25 10:31:48;;;;;;;0.30;0.30;;;18.80;99.90;;;;;;4973657;28;20643;-74
2021/09/25 10:34:15;;;;;;;0.22;0.22;;;19.00;99.90;;;;;;4974992;28;20601;-74
2021/09/25 10:36:51;;;;;;;0.30;0.30;;;19.10;99.90;;;;;;4974933;28;20287;-74
2021/09/25 10:39:28;;;;;;;0.20;0.20;;;19.50;99.90;;;;;;4974201;28;20195;-75
2021/09/25 10:42:10;;;;;;;0.20;0.20;;;19.60;99.90;;;;;;4973783;28;20698;-75
2021/09/25 10:44:56;;;;;;;0.20;0.20;;;19.80;98.00;;;;;;4973561;28;20286;-74
2021/09/25 10:47:24;;;;;;;0.30;0.30;;;19.90;98.10;;;;;;4972789;28;20578;-75
2021/09/25 10:49:58;;;;;;;0.30;0.30;;;19.90;98.10;;;;;;4973709;28;20339;-75
2021/09/25 10:52:51;;;;;;;0.30;0.30;;;19.70;98.00;;;;;;4972246;28;20295;-75
2021/09/25 10:55:25;;;;;;;0.30;0.30;;;19.30;99.00;;;;;;4974373;28;20208;-74
2021/09/25 10:58:12;;;;;;;0.65;0.60;;;19.20;98.60;;;;;;4974077;28;20299;-73
2021/09/25 11:00:47;;;;;;;0.20;0.20;;;19.40;98.60;;;;;;4974450;28;20208;-74
2021/09/25 11:03:47;;;;;;;0.30;0.30;;;18.90;99.00;;;;;;4972817;28;20314;-73
2021/09/25 11:06:24;;;;;;;0.30;0.30;;;19.10;96.70;;;;;;4989407;28;20220;-74
2021/09/25 11:08:55;;;;;;;0.52;0.50;;;19.10;96.60;;;;;;4974687;28;20202;-74
2021/09/25 11:11:41;;;;;;;0.20;0.20;;;18.80;98.10;;;;;;4971669;28;20294;-74
2021/09/25 11:14:29;;;;;;;1.27;0.50;;;18.90;97.20;;;;;;4963272;28;20208;-74
2021/09/25 11:17:09;;;;;;;0.57;0.50;;;19.10;97.70;;;;;;4974367;28;20196;-74
2021/09/25 11:19:39;;;;;;;0.30;0.30;;;19.20;98.20;;;;;;4972526;28;20200;-73
2021/09/25 11:22:23;;;;;;;0.30;0.30;;;19.20;96.50;;;;;;4974075;28;20200;-74
2021/09/25 11:25:00;;;;;;;3.20;0.70;;;19.10;95.90;;;;;;4972573;28;20250;-73
2021/09/25 11:27:30;;;;;;;0.20;0.20;;;19.10;97.10;;;;;;4972891;28;20259;-73
2021/09/25 11:30:08;;;;;;;0.30;0.30;;;19.20;97.00;;;;;;4971516;28;20295;-74
2021/09/25 11:32:47;;;;;;;0.30;0.30;;;19.10;95.10;;;;;;4972772;28;20246;-74
2021/09/25 11:35:33;;;;;;;0.30;0.30;;;19.20;95.10;;;;;;4973929;28;20239;-73
2021/09/25 11:38:01;;;;;;;0.20;0.20;;;19.30;96.30;;;;;;4973149;28;20735;-74
2021/09/25 11:40:34;;;;;;;0.20;0.20;;;19.60;97.20;;;;;;4973671;28;20255;-74
2021/09/25 11:43:14;;;;;;;0.20;0.20;;;19.70;95.30;;;;;;4972678;28;20200;-74
2021/09/25 11:45:43;;;;;;;0.30;0.30;;;19.70;95.10;;;;;;4973594;28;20208;-74
2021/09/25 11:48:10;;;;;;;0.30;0.30;;;19.80;95.00;;;;;;4972611;28;20255;-73
2021/09/25 11:50:41;;;;;;;0.20;0.20;;;19.90;94.60;;;;;;4973846;28;20234;-72
2021/09/25 11:53:14;;;;;;;0.30;0.30;;;19.90;94.50;;;;;;4973661;28;20255;-73
2021/09/25 11:55:41;;;;;;;0.20;0.20;;;19.80;92.70;;;;;;4973492;28;20223;-73
2021/09/25 11:58:09;;;;;;;0.20;0.20;;;20.00;93.50;;;;;;4972172;28;20647;-73
2021/09/25 12:00:48;;;;;;;0.20;0.20;;;20.20;93.80;;;;;;4972248;28;20287;-73
2021/09/25 12:03:16;;;;;;;0.20;0.20;;;20.30;93.60;;;;;;4972131;28;20286;-73
2021/09/25 12:05:50;;;;;;;0.20;0.20;;;20.40;93.70;;;;;;4973622;28;20212;-73
2021/09/25 12:08:19;;;;;;;0.22;0.22;;;20.60;92.20;;;;;;4972343;28;20204;-73
2021/09/25 12:10:50;;;;;;;0.20;0.20;;;20.70;91.80;;;;;;4972343;28;20196;-73
2021/09/25 12:13:46;;;;;;;0.20;0.20;;;20.70;94.40;;;;;;4972277;28;20204;-73
2021/09/25 12:16:17;;;;;;;0.20;0.20;;;20.80;92.90;;;;;;4972511;28;20215;-73
2021/09/25 12:18:47;;;;;;;0.20;0.20;;;20.40;90.90;;;;;;4972381;28;20214;-73
2021/09/25 12:21:19;;;;;;;0.30;0.30;;;20.40;93.50;;;;;;4972402;28;20216;-72
2021/09/25 12:23:52;;;;;;;0.20;0.20;;;20.10;91.40;;;;;;4988297;28;20254;-73
2021/09/25 12:26:22;;;;;;;0.30;0.30;;;20.10;90.10;;;;;;4970957;28;20224;-72
2021/09/25 12:28:53;;;;;;;0.20;0.20;;;20.00;91.80;;;;;;4972298;28;20231;-73
2021/09/25 12:31:32;;;;;;;0.20;0.20;;;19.90;90.20;;;;;;4970730;28;20207;-73
2021/09/25 12:33:58;;;;;;;0.20;0.20;;;19.70;90.80;;;;;;4973402;28;20214;-72
2021/09/25 12:36:33;;;;;;;0.30;0.30;;;19.30;91.10;;;;;;4972951;28;20335;-73
2021/09/25 12:39:22;;;;;;;0.28;0.28;;;19.30;93.40;;;;;;4972071;28;20235;-72
2021/09/25 12:41:54;;;;;;;0.22;0.22;;;19.20;91.40;;;;;;4972053;28;20344;-73
2021/09/25 12:44:22;;;;;;;0.22;0.22;;;19.00;92.50;;;;;;4973014;28;20295;-72
2021/09/25 12:46:53;;;;;;;0.20;0.20;;;18.90;94.30;;;;;;4973039;28;20287;-73
2021/09/25 12:49:34;;;;;;;0.30;0.30;;;18.70;93.00;;;;;;4973346;28;20663;-74
2021/09/25 12:52:05;;;;;;;0.30;0.30;;;18.70;93.10;;;;;;4972146;28;20203;-75
2021/09/25 12:54:40;;;;;;;0.30;0.30;;;18.70;92.90;;;;;;4973173;28;20208;-74
2021/09/25 12:57:15;;;;;;;0.30;0.30;;;18.80;92.10;;;;;;4971892;28;20604;-74